Nearby METAR Reports

 

KSJC - San Jose, California, USA
Distance from station: NE 14km
Updated: 30/11/2021 21:53
Few Clouds
Few Clouds
 Wind from NW
Wind: NW 11 km/h
Temperature: 18°C
Dew Point: 10°C
Humidity: 60%
Barometer: 1020.3 hPa
Clouds: Few Clouds
Visibility: 14 km
Cloud details: Few Clouds 3353 m
2021/11/30 19:53 KSJC 301953Z 32006KT 9SM FEW110 18/10 A3013 RMK AO2 SLP201 T01830100
KNUQ - Moffett Nas/Mtn, California, USA
Distance from station: N 14km
Updated: 30/11/2021 22:10
Clear
Clear
 Wind from calm
Wind: Calm
Temperature: 19°C
Dew Point: 12°C
Humidity: 64%
Barometer: 1019.6 hPa
Clouds: Clear
Visibility: 13 km
2021/11/30 20:10 KNUQ 302010Z AUTO 00000KT 8SM CLR 19/12 A3011 RMK AO2
 
KPAO - Palo Alto, California, USA
Distance from station: NNW 23km
Updated: 30/11/2021 21:47
Mist, Clear
Mist, Clear
 Wind from varies
Wind: varies 9 km/h
Temperature: 16°C
Dew Point: 13°C
Humidity: 83%
Barometer: 1020.3 hPa
Summary: Mist
Clouds: Clear
Visibility: 10 km
2021/11/30 19:47 KPAO 301947Z VRB05KT 6SM BR SKC 16/13 A3013 RMK VIS N 3
KRHV - San Jose/Reid, California, USA
Distance from station: ENE 19km
Updated: 30/11/2021 21:51
Clear
Clear
 Wind from calm
Wind: Calm
Temperature: 18°C
Dew Point: 9°C
Humidity: 56%
Barometer: 1020.3 hPa
Clouds: Clear
Visibility: 16 km
2021/11/30 19:51 KRHV 301951Z 00000KT 10SM SKC 18/09 A3013
 
KOAK - Oakland, California, USA
Distance from station: NNW 50km
Updated: 30/11/2021 21:53
Few Clouds
Few Clouds
 Wind from W
Wind: W 7 km/h
Temperature: 16°C
Dew Point: 12°C
Humidity: 77%
Barometer: 1020.7 hPa
Clouds: Few Clouds
Visibility: 14 km
Cloud details: Few Clouds 1829 m
2021/11/30 19:53 KOAK 301953Z 27004KT 9SM FEW060 16/12 A3014 RMK AO2 SLP208 T01560117 $
KSQL - San Carlos Airpo, California, USA
Distance from station: NW 34km
Updated: 30/11/2021 21:47
Partly cloudy
Partly cloudy
 Wind from calm
Wind: Calm
Temperature: 18°C
Dew Point: 13°C
Humidity: 73%
Barometer: 1020.7 hPa
Clouds: Partly cloudy
Visibility: 11 km
Cloud details: Partly cloudy 914 m
2021/11/30 19:47 KSQL 301947Z 00000KT 7SM SCT030 18/13 A3014
 
KSFO - San Francisco, California, USA
Distance from station: NW 49km
Updated: 30/11/2021 21:56
Haze, Few clouds
Haze, Few clouds
 Wind from calm
Wind: Calm
Temperature: 15°C
Dew Point: 12°C
Humidity: 82%
Barometer: 1020 hPa
Summary: Haze
Clouds: Few Clouds
Visibility: 8 km
Cloud details: Few Clouds 91 m
2021/11/30 19:56 KSFO 301956Z 00000KT 5SM HZ FEW003 15/12 A3012 RMK AO2 SLP200 T01500122
KE16 - San Martin, California, USA
Distance from station: ESE 43km
Updated: 30/11/2021 22:15
Clear
Clear
 Wind from NNW
Wind: NNW 17 km/h
Temperature: 20°C
Dew Point: 9°C
Humidity: 49%
Barometer: 1020 hPa
Clouds: Clear
Visibility: 16 km
2021/11/30 20:15 KE16 302015Z AUTO 34009KT 10SM CLR 20/09 A3012 RMK AO2 PWINO PNO
 
KWVI - Watsonville, California, USA
Distance from station: SSE 44km
Updated: 30/11/2021 21:53
Clear
Clear
 Wind from calm
Wind: Calm
Temperature: 21°C
Dew Point: 10°C
Humidity: 50%
Barometer: 1019.3 hPa
Clouds: Clear
Visibility: 16 km
2021/11/30 19:53 KWVI 301953Z AUTO 00000KT 10SM CLR 21/10 A3010 RMK AO2 SLP192 T02110100
KHAF - Half Moon Bay, California, USA
Distance from station: WNW 50km
Updated: 30/11/2021 22:15
Haze, Clear
Haze, Clear
 Wind from varies
Wind: varies 6 km/h
Temperature: 21°C
Dew Point: 13°C
Humidity: 60%
Barometer: 1019 hPa
Summary: Haze
Clouds: Clear
Visibility: 10 km
2021/11/30 20:15 KHAF 302015Z AUTO VRB03KT 6SM HZ CLR 21/13 A3009 RMK AO2
 
KHWD - Hayward, California, USA
Distance from station: N 44km
Updated: 30/11/2021 21:54
Clear
Clear
 Wind from W
Wind: W 9 km/h
Temperature: 17°C
Dew Point: 12°C
Humidity: 73%
Barometer: 1020 hPa
Clouds: Clear
Visibility: 11 km
2021/11/30 19:54 KHWD 301954Z 27005KT 7SM CLR 17/12 A3012 RMK AO2 SLP210 T01670117
KLVK - Livermore, California, USA
Distance from station: NNE 51km
Updated: 30/11/2021 21:53
Clear
Clear
 Wind from E
Wind: E 19 km/h
Temperature: 21°C
Dew Point: 8°C
Humidity: 43%
Barometer: 1020.3 hPa
Clouds: Clear
Visibility: 16 km
2021/11/30 19:53 KLVK 301953Z 09010KT 10SM CLR 21/08 A3013 RMK AO2 SLP199 T02060083